createdAt,value
2023-03-29T00:00:00.000Z,4
2023-03-29T00:15:00.000Z,4.08
2023-03-29T00:30:00.000Z,4.02
2023-03-29T00:45:00.000Z,3.99
2023-03-29T01:00:00.000Z,4.15
2023-03-29T01:15:00.000Z,4.19
2023-03-29T01:30:00.000Z,4.34
2023-03-29T01:45:00.000Z,4.47
2023-03-29T02:00:00.000Z,4.42
2023-03-29T02:15:00.000Z,4.61
2023-03-29T02:30:00.000Z,4.65
2023-03-29T02:45:00.000Z,4.55
2023-03-29T03:00:00.000Z,4.5
2023-03-29T03:15:00.000Z,3.93
2023-03-29T03:30:00.000Z,3.82
2023-03-29T03:45:00.000Z,3.91
2023-03-29T04:00:00.000Z,3.93
2023-03-29T04:15:00.000Z,3.82
2023-03-29T04:30:00.000Z,3.92
2023-03-29T04:45:00.000Z,4.13
2023-03-29T05:00:00.000Z,4.3
2023-03-29T05:15:00.000Z,4.48
2023-03-29T05:30:00.000Z,4.71
2023-03-29T05:45:00.000Z,4.89
2023-03-29T06:00:00.000Z,5.01
2023-03-29T06:15:00.000Z,5.32
2023-03-29T06:30:00.000Z,5.74
2023-03-29T06:45:00.000Z,5.79
2023-03-29T07:00:00.000Z,6.11
2023-03-29T07:15:00.000Z,6.37
2023-03-29T07:30:00.000Z,6.49
2023-03-29T07:45:00.000Z,6.77
2023-03-29T08:00:00.000Z,7.02
2023-03-29T08:15:00.000Z,7.37
2023-03-29T08:30:00.000Z,7.83
2023-03-29T08:45:00.000Z,8.09
2023-03-29T09:00:00.000Z,8.42
2023-03-29T09:15:00.000Z,8.69
2023-03-29T09:30:00.000Z,8.84
2023-03-29T09:45:00.000Z,8.85
2023-03-29T10:00:00.000Z,9.27
2023-03-29T10:15:00.000Z,9.62
2023-03-29T10:30:00.000Z,9.99
2023-03-29T10:45:00.000Z,10.31
2023-03-29T11:00:00.000Z,10.93
2023-03-29T11:15:00.000Z,10.78
2023-03-29T11:30:00.000Z,11.22
2023-03-29T11:45:00.000Z,11.8
2023-03-29T12:00:00.000Z,12.28
2023-03-29T12:15:00.000Z,12.19
2023-03-29T12:30:00.000Z,12.52
2023-03-29T12:45:00.000Z,13.34
2023-03-29T13:00:00.000Z,13.99
2023-03-29T13:15:00.000Z,14.41
2023-03-29T13:30:00.000Z,14.34
2023-03-29T13:45:00.000Z,14.49
2023-03-29T14:00:00.000Z,14.3
2023-03-29T14:15:00.000Z,13.83
2023-03-29T14:30:00.000Z,13.73
2023-03-29T14:45:00.000Z,13.52
2023-03-29T15:00:00.000Z,13.44
2023-03-29T15:15:00.000Z,13.34
2023-03-29T15:30:00.000Z,12.89
2023-03-29T15:45:00.000Z,12.78
2023-03-29T16:00:00.000Z,13
2023-03-29T16:15:00.000Z,13.21
2023-03-29T16:30:00.000Z,13.45
2023-03-29T16:45:00.000Z,13.2
2023-03-29T17:00:00.000Z,12.96
2023-03-29T17:15:00.000Z,12.88
2023-03-29T17:30:00.000Z,12.56
2023-03-29T17:45:00.000Z,12.36
2023-03-29T18:00:00.000Z,12.07
2023-03-29T18:15:00.000Z,11.62
2023-03-29T18:30:00.000Z,11.15
2023-03-29T18:45:00.000Z,11.06
2023-03-29T19:00:00.000Z,10.82
2023-03-29T19:15:00.000Z,10.59
2023-03-29T19:30:00.000Z,10.46
2023-03-29T19:45:00.000Z,10.33
2023-03-29T20:00:00.000Z,10.36
2023-03-29T20:15:00.000Z,10.31
2023-03-29T20:30:00.000Z,10.28
2023-03-29T20:45:00.000Z,10.12
2023-03-29T21:00:00.000Z,10.12
2023-03-29T21:15:00.000Z,10.28
2023-03-29T21:30:00.000Z,11.03
2023-03-29T21:45:00.000Z,10.58
2023-03-29T22:00:00.000Z,10.61
2023-03-29T22:15:00.000Z,10.59
2023-03-29T22:30:00.000Z,10.67
2023-03-29T22:45:00.000Z,10.69
2023-03-29T23:00:00.000Z,10.6
2023-03-29T23:15:00.000Z,10.57
2023-03-29T23:30:00.000Z,10.54
2023-03-29T23:45:00.000Z,10.58
